Time;durP1;ratioP1;P1;durP2;ratioP2;P2;SDS_P1;SDS_P2;PMS_P1;PMS_P2;Temp;Humidity;BMP_temperature;BMP_pressure;BME280_temperature;BME280_humidity;BME280_pressure;Samples;Min_cycle;Max_cycle;Signal;HPM_P1;HPM_P2
2023/06/07 00:04:24;;;;;;;6.40;5.82;;;;;;;;;;10356584;28;21427;-79
2023/06/07 00:09:25;;;;;;;6.10;5.57;;;;;;;;;;10339482;28;20320;-80
2023/06/07 00:14:33;;;;;;;5.55;5.15;;;;;;;;;;10352761;28;20226;-80
2023/06/07 00:19:34;;;;;;;5.63;5.22;;;;;;;;;;10312922;28;20213;-78
2023/06/07 00:24:35;;;;;;;6.60;5.63;;;;;;;;;;10355701;28;20310;-79
2023/06/07 00:29:36;;;;;;;5.80;5.30;;;;;;;;;;10358076;28;20245;-79
2023/06/07 00:34:37;;;;;;;5.95;4.85;;;;;;;;;;10354687;28;20408;-80
2023/06/07 00:39:41;;;;;;;5.05;4.80;;;;;;;;;;10359141;28;20232;-79
2023/06/07 00:44:42;;;;;;;5.40;5.00;;;;;;;;;;10338071;28;20312;-78
2023/06/07 00:49:44;;;;;;;5.53;5.10;;;;;;;;;;10322232;28;21512;-79
2023/06/07 00:54:45;;;;;;;6.45;5.65;;;;;;;;;;10316769;28;20248;-79
2023/06/07 00:59:46;;;;;;;6.13;5.65;;;;;;;;;;10350956;28;20214;-78
2023/06/07 01:04:49;;;;;;;6.82;6.10;;;;;;;;;;10326729;28;20237;-79
2023/06/07 01:09:51;;;;;;;6.90;6.30;;;;;;;;;;10314100;28;20775;-77
2023/06/07 01:14:54;;;;;;;7.30;6.72;;;;;;;;;;10266915;28;20345;-79
2023/06/07 01:19:57;;;;;;;5.75;5.25;;;;;;;;;;10317163;28;20957;-77
2023/06/07 01:25:00;;;;;;;6.28;5.78;;;;;;;;;;10299193;28;20219;-77
2023/06/07 01:30:02;;;;;;;6.65;6.15;;;;;;;;;;10291445;28;20218;-80
2023/06/07 01:35:05;;;;;;;7.10;6.45;;;;;;;;;;10302901;28;22616;-79
2023/06/07 01:40:09;;;;;;;8.02;7.32;;;;;;;;;;10331357;28;20187;-78
2023/06/07 01:45:11;;;;;;;7.50;6.90;;;;;;;;;;10264012;28;20215;-78
2023/06/07 01:50:12;;;;;;;7.53;6.95;;;;;;;;;;10282385;28;20191;-80
2023/06/07 01:55:13;;;;;;;7.88;6.97;;;;;;;;;;10257555;28;20212;-78
2023/06/07 02:00:27;;;;;;;12.23;7.95;;;;;;;;;;10299834;28;20193;-79
2023/06/07 02:05:29;;;;;;;7.18;6.57;;;;;;;;;;10344912;28;20223;-78
2023/06/07 02:10:31;;;;;;;7.80;7.20;;;;;;;;;;10353748;28;20744;-79
2023/06/07 02:15:32;;;;;;;8.48;7.47;;;;;;;;;;10405064;28;20859;-79
2023/06/07 02:20:34;;;;;;;8.80;8.05;;;;;;;;;;10324720;28;22022;-77
2023/06/07 02:25:35;;;;;;;9.35;8.57;;;;;;;;;;10311688;28;21807;-77
2023/06/07 02:30:36;;;;;;;8.32;7.63;;;;;;;;;;10335756;28;20210;-79
2023/06/07 02:35:38;;;;;;;8.25;7.55;;;;;;;;;;10329133;28;20217;-79
2023/06/07 02:40:39;;;;;;;8.10;7.40;;;;;;;;;;10311160;28;20229;-80
2023/06/07 02:45:40;;;;;;;10.52;8.25;;;;;;;;;;10344761;28;20222;-78
2023/06/07 02:50:41;;;;;;;9.13;8.20;;;;;;;;;;10345346;28;20233;-77
2023/06/07 02:55:42;;;;;;;9.32;8.20;;;;;;;;;;10320869;28;20225;-80
2023/06/07 03:00:49;;;;;;;11.77;7.72;;;;;;;;;;10332181;28;20298;-78
2023/06/07 03:05:52;;;;;;;8.63;7.72;;;;;;;;;;10369741;28;20226;-78
2023/06/07 03:10:54;;;;;;;7.65;6.90;;;;;;;;;;10299830;28;21018;-80
2023/06/07 03:16:01;;;;;;;7.70;6.97;;;;;;;;;;10275116;28;20297;-78
2023/06/07 03:21:06;;;;;;;7.93;7.32;;;;;;;;;;10280645;28;20357;-78
2023/06/07 03:26:07;;;;;;;6.95;6.55;;;;;;;;;;10283835;28;20415;-79
2023/06/07 03:31:09;;;;;;;8.10;7.55;;;;;;;;;;10283577;28;20227;-80
2023/06/07 03:36:24;;;;;;;8.70;7.53;;;;;;;;;;10351436;28;20300;-79
2023/06/07 03:41:27;;;;;;;7.95;7.35;;;;;;;;;;10337767;28;20214;-79
2023/06/07 03:46:29;;;;;;;8.05;7.43;;;;;;;;;;10282510;28;20960;-77
2023/06/07 03:51:32;;;;;;;8.90;8.07;;;;;;;;;;10262950;28;20233;-80
2023/06/07 03:56:36;;;;;;;8.75;7.93;;;;;;;;;;10272927;28;22130;-78
2023/06/07 04:01:38;;;;;;;8.10;7.35;;;;;;;;;;10282752;28;20226;-81
2023/06/07 04:06:39;;;;;;;7.85;7.10;;;;;;;;;;10298991;28;20232;-78
2023/06/07 04:11:41;;;;;;;7.85;7.13;;;;;;;;;;10360554;28;21471;-80
2023/06/07 04:16:43;;;;;;;8.63;7.93;;;;;;;;;;10377686;28;23325;-79
2023/06/07 04:21:44;;;;;;;8.63;7.82;;;;;;;;;;10367608;28;20229;-80
2023/06/07 04:26:48;;;;;;;11.95;7.10;;;;;;;;;;10369983;28;22097;-78
2023/06/07 04:31:52;;;;;;;8.57;7.82;;;;;;;;;;10340017;28;21211;-80
2023/06/07 04:36:55;;;;;;;10.05;7.60;;;;;;;;;;10335245;28;20218;-79
2023/06/07 04:41:57;;;;;;;8.25;7.43;;;;;;;;;;10318869;28;20222;-81
2023/06/07 04:47:00;;;;;;;8.82;8.00;;;;;;;;;;10301099;28;20337;-80
2023/06/07 04:52:03;;;;;;;8.45;7.68;;;;;;;;;;10348992;28;20676;-79
2023/06/07 04:57:08;;;;;;;9.35;7.80;;;;;;;;;;10369223;28;20324;-78
2023/06/07 05:02:10;;;;;;;7.60;7.07;;;;;;;;;;10360086;28;20295;-76
2023/06/07 05:07:13;;;;;;;8.35;7.63;;;;;;;;;;10346879;28;20573;-77
2023/06/07 05:12:17;;;;;;;7.95;7.35;;;;;;;;;;10349014;28;20210;-75
2023/06/07 05:17:19;;;;;;;7.80;7.13;;;;;;;;;;10353110;28;21144;-77
2023/06/07 05:22:22;;;;;;;8.18;7.05;;;;;;;;;;10340466;28;20218;-76
2023/06/07 05:27:23;;;;;;;8.38;7.60;;;;;;;;;;10363167;28;20625;-75
2023/06/07 05:32:24;;;;;;;7.50;7.00;;;;;;;;;;10365622;28;20228;-76
2023/06/07 05:37:25;;;;;;;8.15;7.45;;;;;;;;;;10345690;28;20217;-76
2023/06/07 05:42:26;;;;;;;7.97;7.35;;;;;;;;;;10333204;28;20270;-74
2023/06/07 05:47:28;;;;;;;6.75;6.13;;;;;;;;;;10339457;28;20213;-78
2023/06/07 05:52:29;;;;;;;7.85;7.25;;;;;;;;;;10363614;28;20214;-77
2023/06/07 05:57:30;;;;;;;8.27;7.32;;;;;;;;;;10366974;28;20272;-77
2023/06/07 06:02:31;;;;;;;8.18;7.50;;;;;;;;;;10366146;28;21413;-76
2023/06/07 06:07:32;;;;;;;7.60;6.65;;;;;;;;;;10368964;28;20223;-77
2023/06/07 06:12:33;;;;;;;8.07;7.15;;;;;;;;;;10374356;28;20230;-75
2023/06/07 06:17:34;;;;;;;7.22;6.72;;;;;;;;;;10363374;28;20520;-78
2023/06/07 06:22:35;;;;;;;7.65;7.07;;;;;;;;;;10362056;28;20703;-78
2023/06/07 06:27:37;;;;;;;7.60;7.00;;;;;;;;;;10357339;28;20217;-78
2023/06/07 06:32:38;;;;;;;7.28;6.45;;;;;;;;;;10346498;28;20287;-76
2023/06/07 06:37:40;;;;;;;6.50;6.03;;;;;;;;;;10359266;28;20222;-77
2023/06/07 06:42:41;;;;;;;7.28;6.75;;;;;;;;;;10344470;28;22623;-76
2023/06/07 06:48:05;;;;;;;6.70;6.13;;;;;;;;;;10363010;28;20434;-79
2023/06/07 06:53:06;;;;;;;7.43;6.65;;;;;;;;;;10337094;28;20304;-76
2023/06/07 06:58:07;;;;;;;5.88;5.57;;;;;;;;;;10360847;28;20245;-76
2023/06/07 07:03:08;;;;;;;5.85;5.38;;;;;;;;;;10356039;28;20336;-77
2023/06/07 07:08:09;;;;;;;6.22;5.72;;;;;;;;;;10357619;28;20637;-75
2023/06/07 07:13:10;;;;;;;6.95;6.28;;;;;;;;;;10354891;28;20699;-78
2023/06/07 07:18:13;;;;;;;6.07;5.68;;;;;;;;;;10361744;28;20218;-75
2023/06/07 07:23:14;;;;;;;6.55;6.05;;;;;;;;;;10346000;28;20719;-77
2023/06/07 07:28:15;;;;;;;6.53;5.10;;;;;;;;;;10355638;28;20857;-78
2023/06/07 07:33:16;;;;;;;4.65;4.35;;;;;;;;;;10355932;28;20218;-77
2023/06/07 07:38:17;;;;;;;4.75;4.55;;;;;;;;;;10353952;28;20217;-76
2023/06/07 07:43:18;;;;;;;4.30;4.05;;;;;;;;;;10331527;28;20219;-77
2023/06/07 07:48:20;;;;;;;5.00;4.60;;;;;;;;;;10311210;28;20237;-78
2023/06/07 07:53:21;;;;;;;4.47;4.13;;;;;;;;;;10329868;28;20218;-78
2023/06/07 07:58:22;;;;;;;4.07;3.83;;;;;;;;;;10309698;28;20218;-77
2023/06/07 08:03:23;;;;;;;4.80;4.50;;;;;;;;;;10345857;28;20239;-76
2023/06/07 08:08:25;;;;;;;4.07;3.78;;;;;;;;;;10306321;28;21555;-78
2023/06/07 08:13:26;;;;;;;3.78;3.58;;;;;;;;;;10285339;28;20821;-75
2023/06/07 08:18:27;;;;;;;5.63;3.33;;;;;;;;;;10320654;28;20316;-76
2023/06/07 08:23:28;;;;;;;2.33;2.22;;;;;;;;;;10308277;28;21003;-76
2023/06/07 08:28:29;;;;;;;2.97;2.20;;;;;;;;;;10306360;28;21740;-76
2023/06/07 08:33:30;;;;;;;2.40;2.20;;;;;;;;;;10305925;28;21212;-76
2023/06/07 08:38:31;;;;;;;2.70;2.47;;;;;;;;;;10279748;28;20314;-76
2023/06/07 08:43:32;;;;;;;2.35;2.25;;;;;;;;;;10276405;28;20215;-74
2023/06/07 08:48:34;;;;;;;2.40;2.20;;;;;;;;;;10285751;28;23069;-77
2023/06/07 08:53:41;;;;;;;2.45;2.30;;;;;;;;;;10272649;28;20250;-80
2023/06/07 08:58:42;;;;;;;2.58;2.00;;;;;;;;;;10288154;28;20947;-75
2023/06/07 09:03:44;;;;;;;3.05;2.30;;;;;;;;;;10298748;28;22382;-77
2023/06/07 09:08:45;;;;;;;2.22;2.03;;;;;;;;;;10325979;28;20218;-76
2023/06/07 09:13:46;;;;;;;2.03;1.92;;;;;;;;;;10319917;28;20225;-79
2023/06/07 09:18:57;;;;;;;2.40;2.40;;;;;;;;;;10318618;28;20210;-77
2023/06/07 09:23:59;;;;;;;2.85;2.40;;;;;;;;;;10341364;28;20221;-79
2023/06/07 09:29:04;;;;;;;2.05;1.95;;;;;;;;;;10329213;28;20300;-79
2023/06/07 09:34:22;;;;;;;2.38;2.28;;;;;;;;;;10350602;28;20269;-80
2023/06/07 09:39:23;;;;;;;5.72;2.13;;;;;;;;;;10333365;28;20221;-78
2023/06/07 09:44:29;;;;;;;3.75;2.40;;;;;;;;;;10328270;28;21565;-80
2023/06/07 09:49:31;;;;;;;3.15;2.05;;;;;;;;;;10345499;28;20231;-80
2023/06/07 09:54:36;;;;;;;2.13;2.03;;;;;;;;;;10316750;28;20437;-79
2023/06/07 09:59:38;;;;;;;2.55;2.45;;;;;;;;;;10329153;28;21935;-80
2023/06/07 10:04:40;;;;;;;3.00;1.98;;;;;;;;;;10319932;28;20234;-78
2023/06/07 10:09:41;;;;;;;2.55;2.20;;;;;;;;;;10302181;28;20218;-81
2023/06/07 10:14:45;;;;;;;2.45;2.30;;;;;;;;;;10347731;28;20219;-79
2023/06/07 10:19:51;;;;;;;2.20;2.10;;;;;;;;;;10361294;28;20218;-79
2023/06/07 10:25:12;;;;;;;3.63;1.67;;;;;;;;;;10339443;28;20760;-78
2023/06/07 10:30:16;;;;;;;3.13;1.90;;;;;;;;;;10384482;28;22510;-77
2023/06/07 10:35:17;;;;;;;2.28;1.73;;;;;;;;;;10374461;28;20241;-80
2023/06/07 10:40:19;;;;;;;1.73;1.65;;;;;;;;;;10367575;28;20492;-79
2023/06/07 10:45:20;;;;;;;1.67;1.60;;;;;;;;;;10358537;28;20225;-78
2023/06/07 10:50:27;;;;;;;1.77;1.67;;;;;;;;;;10358461;28;20976;-78
2023/06/07 10:55:31;;;;;;;1.45;1.45;;;;;;;;;;10383099;28;20336;-75
2023/06/07 11:00:35;;;;;;;4.50;1.90;;;;;;;;;;10363334;28;20203;-78
2023/06/07 11:05:54;;;;;;;3.42;1.50;;;;;;;;;;10379335;28;22099;-78
2023/06/07 11:11:00;;;;;;;1.35;1.35;;;;;;;;;;10370160;28;21051;-79
2023/06/07 11:16:20;;;;;;;2.35;1.63;;;;;;;;;;10379833;28;20214;-76
2023/06/07 11:21:21;;;;;;;1.63;1.63;;;;;;;;;;10374662;28;20771;-78
2023/06/07 11:26:22;;;;;;;1.70;1.60;;;;;;;;;;10398702;28;20213;-77
2023/06/07 11:31:23;;;;;;;2.70;1.52;;;;;;;;;;10392764;28;20226;-78
2023/06/07 11:36:25;;;;;;;3.55;1.52;;;;;;;;;;10375576;28;20781;-80
2023/06/07 11:41:26;;;;;;;1.88;1.75;;;;;;;;;;10371156;28;21489;-77
2023/06/07 11:46:27;;;;;;;1.40;1.40;;;;;;;;;;10362230;28;20230;-76
2023/06/07 11:51:28;;;;;;;1.60;1.60;;;;;;;;;;10370385;28;20645;-78
2023/06/07 11:56:30;;;;;;;1.48;1.38;;;;;;;;;;10339870;28;20670;-78
2023/06/07 12:01:33;;;;;;;1.48;1.48;;;;;;;;;;10357365;28;20216;-81
2023/06/07 12:06:34;;;;;;;1.63;1.52;;;;;;;;;;10356192;28;20328;-80
2023/06/07 12:11:37;;;;;;;1.48;1.48;;;;;;;;;;10327513;28;21029;-78
2023/06/07 12:16:38;;;;;;;1.20;1.20;;;;;;;;;;10349047;28;20234;-80
2023/06/07 12:21:39;;;;;;;1.77;1.65;;;;;;;;;;10343101;28;20218;-80
2023/06/07 12:26:40;;;;;;;2.63;1.65;;;;;;;;;;10363799;28;20333;-80
2023/06/07 12:31:41;;;;;;;1.88;1.33;;;;;;;;;;10319795;28;20328;-79
2023/06/07 12:36:43;;;;;;;1.35;1.25;;;;;;;;;;10335943;28;20310;-80
2023/06/07 12:41:44;;;;;;;1.40;1.40;;;;;;;;;;10373650;28;21129;-80
2023/06/07 12:46:45;;;;;;;1.30;1.30;;;;;;;;;;10384918;28;20305;-78
2023/06/07 12:51:46;;;;;;;1.48;1.48;;;;;;;;;;10364894;28;22917;-79
2023/06/07 12:56:47;;;;;;;1.58;1.50;;;;;;;;;;10381529;28;20249;-78
2023/06/07 13:01:48;;;;;;;1.60;1.50;;;;;;;;;;10343290;28;20938;-78
2023/06/07 13:06:49;;;;;;;1.52;1.52;;;;;;;;;;10370178;28;20234;-81
2023/06/07 13:11:51;;;;;;;1.55;1.55;;;;;;;;;;10362292;28;21500;-78
2023/06/07 13:16:52;;;;;;;1.75;1.65;;;;;;;;;;10381008;28;20221;-79
2023/06/07 13:21:53;;;;;;;1.40;1.40;;;;;;;;;;10365451;28;20298;-78
2023/06/07 13:26:54;;;;;;;1.80;1.70;;;;;;;;;;10372290;28;20789;-76
2023/06/07 13:31:56;;;;;;;1.52;1.50;;;;;;;;;;10376719;28;20659;-78
2023/06/07 13:36:58;;;;;;;3.90;1.80;;;;;;;;;;10382297;28;21562;-78
2023/06/07 13:41:59;;;;;;;1.70;1.70;;;;;;;;;;10370503;28;20222;-76
2023/06/07 13:47:01;;;;;;;1.60;1.60;;;;;;;;;;10386479;28;20202;-81
2023/06/07 13:52:03;;;;;;;7.28;1.70;;;;;;;;;;10385978;28;21189;-80
2023/06/07 13:57:04;;;;;;;2.70;1.65;;;;;;;;;;10375431;28;20213;-78
2023/06/07 14:02:08;;;;;;;2.10;1.50;;;;;;;;;;10366486;28;21331;-78
2023/06/07 14:07:09;;;;;;;1.77;1.77;;;;;;;;;;10356899;28;20955;-79
2023/06/07 14:12:10;;;;;;;2.00;1.77;;;;;;;;;;10386006;28;20279;-79
2023/06/07 14:17:12;;;;;;;1.38;1.38;;;;;;;;;;10352609;28;21023;-78
2023/06/07 14:22:16;;;;;;;1.80;1.70;;;;;;;;;;10376630;28;20347;-80
2023/06/07 14:27:20;;;;;;;1.80;1.80;;;;;;;;;;10392499;28;20223;-78
2023/06/07 14:32:21;;;;;;;2.17;1.38;;;;;;;;;;10372677;28;20395;-79
2023/06/07 14:37:22;;;;;;;2.15;2.05;;;;;;;;;;10371045;28;20218;-78
2023/06/07 14:42:24;;;;;;;1.88;1.88;;;;;;;;;;10354135;28;20214;-78
2023/06/07 14:47:26;;;;;;;1.85;1.85;;;;;;;;;;10371267;28;20233;-81
2023/06/07 14:52:27;;;;;;;1.50;1.40;;;;;;;;;;10366836;28;20232;-80
2023/06/07 14:57:28;;;;;;;3.90;1.67;;;;;;;;;;10360812;28;20333;-78
2023/06/07 15:02:29;;;;;;;1.98;1.88;;;;;;;;;;10349166;28;20226;-77
2023/06/07 15:07:31;;;;;;;2.00;1.90;;;;;;;;;;10369778;28;20250;-79
2023/06/07 15:12:32;;;;;;;1.92;1.83;;;;;;;;;;10358359;28;20959;-79
2023/06/07 15:17:33;;;;;;;1.95;1.83;;;;;;;;;;10353688;28;20217;-78
2023/06/07 15:22:34;;;;;;;3.15;2.00;;;;;;;;;;10335722;28;20217;-78
2023/06/07 15:27:38;;;;;;;2.40;2.20;;;;;;;;;;10346433;28;20233;-78
2023/06/07 15:32:39;;;;;;;3.13;1.70;;;;;;;;;;10371213;28;20281;-78
2023/06/07 15:37:40;;;;;;;2.13;1.90;;;;;;;;;;10367711;28;20260;-77
2023/06/07 15:42:41;;;;;;;2.67;1.85;;;;;;;;;;10323700;28;20364;-80
2023/06/07 15:47:56;;;;;;;1.83;1.83;;;;;;;;;;10347418;28;20221;-78
2023/06/07 15:52:57;;;;;;;2.38;2.20;;;;;;;;;;10348344;28;21207;-79
2023/06/07 15:57:58;;;;;;;2.05;1.83;;;;;;;;;;10356251;28;20238;-79
2023/06/07 16:02:59;;;;;;;2.40;1.85;;;;;;;;;;10354656;28;20765;-78
2023/06/07 16:08:00;;;;;;;1.88;1.88;;;;;;;;;;10369185;28;20218;-79
2023/06/07 16:13:02;;;;;;;2.40;2.30;;;;;;;;;;10370795;28;21301;-79
2023/06/07 16:18:07;;;;;;;2.15;1.77;;;;;;;;;;10335330;28;20810;-78
2023/06/07 16:23:08;;;;;;;1.95;1.95;;;;;;;;;;10351155;28;20226;-79
2023/06/07 16:28:09;;;;;;;2.85;1.83;;;;;;;;;;10352128;28;20221;-78
2023/06/07 16:33:10;;;;;;;1.90;1.88;;;;;;;;;;10311238;28;22342;-79
2023/06/07 16:38:11;;;;;;;2.22;1.90;;;;;;;;;;10303080;28;21181;-80
2023/06/07 16:43:12;;;;;;;3.70;1.80;;;;;;;;;;10329745;28;20222;-78
2023/06/07 16:48:13;;;;;;;2.95;1.90;;;;;;;;;;10340449;28;20221;-77
2023/06/07 16:53:15;;;;;;;2.28;1.60;;;;;;;;;;10316699;28;20228;-78
2023/06/07 16:58:16;;;;;;;1.98;1.80;;;;;;;;;;10302584;28;21438;-77
2023/06/07 17:03:17;;;;;;;1.77;1.67;;;;;;;;;;10327370;28;20236;-77
2023/06/07 17:08:18;;;;;;;2.15;2.03;;;;;;;;;;10312302;28;20603;-77
2023/06/07 17:13:19;;;;;;;3.72;2.03;;;;;;;;;;10317531;28;20403;-76
2023/06/07 17:18:20;;;;;;;1.90;1.90;;;;;;;;;;10296770;28;21437;-76
2023/06/07 17:23:22;;;;;;;1.88;1.88;;;;;;;;;;10344485;28;20225;-76
2023/06/07 17:28:23;;;;;;;1.63;1.55;;;;;;;;;;10338456;28;20263;-76
2023/06/07 17:33:24;;;;;;;1.80;1.80;;;;;;;;;;10334382;28;20245;-76
2023/06/07 17:38:25;;;;;;;1.58;1.58;;;;;;;;;;10337278;28;20243;-75
2023/06/07 17:43:26;;;;;;;2.40;2.30;;;;;;;;;;10352634;28;20218;-77
2023/06/07 17:48:27;;;;;;;2.00;1.83;;;;;;;;;;10366597;28;22339;-78
2023/06/07 17:53:28;;;;;;;1.70;1.60;;;;;;;;;;10372556;28;21667;-80
2023/06/07 17:58:29;;;;;;;2.10;2.10;;;;;;;;;;10331956;28;20218;-78
2023/06/07 18:03:30;;;;;;;2.17;2.03;;;;;;;;;;10349893;28;20222;-79
2023/06/07 18:08:34;;;;;;;2.10;1.92;;;;;;;;;;10340197;28;20851;-77
2023/06/07 18:13:35;;;;;;;2.15;1.80;;;;;;;;;;10340775;28;20218;-80
2023/06/07 18:18:37;;;;;;;2.17;2.10;;;;;;;;;;10341802;28;21085;-78
2023/06/07 18:23:38;;;;;;;1.70;1.60;;;;;;;;;;10304605;28;21322;-78
2023/06/07 18:28:40;;;;;;;2.90;2.40;;;;;;;;;;10335095;28;20211;-78
2023/06/07 18:33:41;;;;;;;1.85;1.85;;;;;;;;;;10326770;28;20248;-77
2023/06/07 18:38:42;;;;;;;1.83;1.83;;;;;;;;;;10347209;28;20218;-77
2023/06/07 18:43:43;;;;;;;2.13;1.88;;;;;;;;;;10342046;28;20260;-80
2023/06/07 18:48:44;;;;;;;2.67;1.98;;;;;;;;;;10338831;28;20246;-81
2023/06/07 18:53:46;;;;;;;2.63;2.20;;;;;;;;;;10363638;28;20303;-77
2023/06/07 18:58:47;;;;;;;2.25;2.00;;;;;;;;;;10360138;28;20221;-77
2023/06/07 19:03:48;;;;;;;2.75;2.15;;;;;;;;;;10330236;28;20880;-79
2023/06/07 19:08:49;;;;;;;2.15;2.05;;;;;;;;;;10284506;28;20261;-81
2023/06/07 19:13:51;;;;;;;2.60;2.40;;;;;;;;;;10285357;28;20226;-80
2023/06/07 19:18:52;;;;;;;4.18;1.98;;;;;;;;;;10286826;28;21443;-81
2023/06/07 19:23:53;;;;;;;2.00;1.90;;;;;;;;;;10305416;28;21048;-82
2023/06/07 19:28:57;;;;;;;2.30;2.20;;;;;;;;;;10278838;28;20207;-81
2023/06/07 19:33:59;;;;;;;1.95;1.95;;;;;;;;;;10269736;28;20218;-78
2023/06/07 19:39:00;;;;;;;1.88;1.85;;;;;;;;;;10288241;28;20337;-79
2023/06/07 19:44:01;;;;;;;4.68;2.10;;;;;;;;;;10271906;28;20310;-79
2023/06/07 19:49:02;;;;;;;2.20;2.20;;;;;;;;;;10298356;28;20222;-81
2023/06/07 19:54:03;;;;;;;1.63;1.60;;;;;;;;;;10284319;28;20688;-80
2023/06/07 19:59:04;;;;;;;2.38;2.28;;;;;;;;;;10267543;28;20215;-80
2023/06/07 20:04:05;;;;;;;2.35;2.00;;;;;;;;;;10292252;28;20234;-81
2023/06/07 20:09:07;;;;;;;1.88;1.88;;;;;;;;;;10320460;28;21227;-81
2023/06/07 20:14:10;;;;;;;2.03;2.03;;;;;;;;;;10327634;28;20234;-79
2023/06/07 20:19:11;;;;;;;2.88;2.78;;;;;;;;;;10330827;28;20881;-80
2023/06/07 20:24:12;;;;;;;2.70;2.50;;;;;;;;;;10339917;28;22705;-77
2023/06/07 20:29:14;;;;;;;4.35;2.63;;;;;;;;;;10321587;28;20237;-79
2023/06/07 20:34:15;;;;;;;2.97;2.97;;;;;;;;;;10331713;28;20214;-78
2023/06/07 20:39:16;;;;;;;3.00;2.85;;;;;;;;;;10336970;28;20244;-78
2023/06/07 20:44:18;;;;;;;2.70;2.50;;;;;;;;;;10320803;28;20301;-78
2023/06/07 20:49:19;;;;;;;3.65;2.28;;;;;;;;;;10328773;28;20222;-79
2023/06/07 20:54:23;;;;;;;3.35;3.20;;;;;;;;;;10352492;28;20206;-79
2023/06/07 20:59:25;;;;;;;2.88;2.78;;;;;;;;;;10343564;28;20636;-79
2023/06/07 21:04:26;;;;;;;2.85;2.75;;;;;;;;;;10327154;28;20234;-79
2023/06/07 21:09:27;;;;;;;2.95;2.70;;;;;;;;;;10328216;28;20536;-80
2023/06/07 21:14:28;;;;;;;3.45;3.20;;;;;;;;;;10346823;28;20222;-79
2023/06/07 21:19:29;;;;;;;3.40;3.15;;;;;;;;;;10339089;28;20264;-79
2023/06/07 21:24:31;;;;;;;3.80;3.60;;;;;;;;;;10328323;28;20258;-80
2023/06/07 21:29:32;;;;;;;5.10;3.50;;;;;;;;;;10335413;28;20222;-81
2023/06/07 21:34:33;;;;;;;3.65;3.53;;;;;;;;;;10345170;28;20975;-80
2023/06/07 21:39:34;;;;;;;3.47;3.20;;;;;;;;;;10334667;28;20215;-80
2023/06/07 21:44:35;;;;;;;3.03;2.80;;;;;;;;;;10338856;28;20315;-77
2023/06/07 21:49:36;;;;;;;3.20;2.80;;;;;;;;;;10354085;28;20795;-78
2023/06/07 21:54:46;;;;;;;3.20;2.70;;;;;;;;;;10328498;28;20305;-76
2023/06/07 21:59:47;;;;;;;3.47;3.38;;;;;;;;;;10323438;28;20285;-78
2023/06/07 22:04:48;;;;;;;3.92;3.28;;;;;;;;;;10334289;28;21411;-77
2023/06/07 22:09:49;;;;;;;3.50;3.30;;;;;;;;;;10354051;28;20260;-77
2023/06/07 22:14:52;;;;;;;3.33;3.17;;;;;;;;;;10359498;28;20214;-78
2023/06/07 22:19:54;;;;;;;3.15;2.95;;;;;;;;;;10354700;28;20229;-78
2023/06/07 22:24:55;;;;;;;3.30;2.70;;;;;;;;;;10338659;28;20342;-77
2023/06/07 22:29:57;;;;;;;3.03;2.80;;;;;;;;;;10355967;28;20209;-78
2023/06/07 22:35:03;;;;;;;3.17;2.75;;;;;;;;;;10350970;28;22714;-78
2023/06/07 22:40:05;;;;;;;3.25;3.15;;;;;;;;;;10346797;28;20279;-78
2023/06/07 22:45:07;;;;;;;3.05;3.03;;;;;;;;;;10343991;28;22552;-78
2023/06/07 22:50:08;;;;;;;2.95;2.90;;;;;;;;;;10342460;28;20178;-78
2023/06/07 22:55:13;;;;;;;3.78;3.10;;;;;;;;;;10354714;28;20350;-78
2023/06/07 23:00:14;;;;;;;3.88;3.50;;;;;;;;;;10355424;28;20220;-80
2023/06/07 23:05:16;;;;;;;3.30;3.15;;;;;;;;;;10344162;28;20225;-79
2023/06/07 23:10:18;;;;;;;3.45;3.20;;;;;;;;;;10364804;28;20205;-78
2023/06/07 23:15:19;;;;;;;3.20;3.10;;;;;;;;;;10362066;28;20302;-78
2023/06/07 23:20:20;;;;;;;3.10;2.90;;;;;;;;;;10359439;28;23025;-78
2023/06/07 23:25:21;;;;;;;4.28;4.03;;;;;;;;;;10360153;28;20229;-78
2023/06/07 23:30:22;;;;;;;3.95;3.75;;;;;;;;;;10340961;28;20309;-78
2023/06/07 23:35:24;;;;;;;4.03;3.80;;;;;;;;;;10330749;28;21447;-79
2023/06/07 23:40:25;;;;;;;4.68;4.32;;;;;;;;;;10336126;28;20197;-77
2023/06/07 23:45:28;;;;;;;4.03;3.70;;;;;;;;;;10344722;28;20226;-78
2023/06/07 23:50:29;;;;;;;3.72;3.42;;;;;;;;;;10335371;28;20242;-77
2023/06/07 23:55:30;;;;;;;4.47;4.28;;;;;;;;;;10343319;28;20218;-77
